Calais, Maine
Current Conditions -  °F | °C
As of 11:00 PM on Sunday 25 Jan 2015 (Local Time) from CYFC Reporting Station
Clear Clear  
Wind Chill: -6°   Ceiling: Unl
Heat Index:   Visibility: 9mi
Dew Point: -2°   Wind: 12mph
Humidity: 62%   Direction: 270°W
Pressure: 29.8"   Gusts: 21mph
Location:  45.18°N, 67.28°W
Report Text: CYFC 260400Z AUTO 27010G18KT 9SM CLR M13/M19 A2980 RMK PRESRR SLP094
Loading
Personal Weather Stations






























Interactive Weather Map New forecast layout! Learn more

10-Day Weather Forecast

Advertisements
Track Severe Weather on mobile